createdAt,value
2022-11-20T06:56:18.324Z,102473.16
2022-11-20T06:59:05.058Z,102460.91
2022-11-20T07:01:51.794Z,102467.09
2022-11-20T07:04:38.527Z,102468.84
2022-11-20T07:07:25.576Z,102460.06
2022-11-20T07:10:12.305Z,102453.91
2022-11-20T07:12:59.110Z,102470.63
2022-11-20T07:15:46.436Z,102471.50
2022-11-20T07:18:33.235Z,102478.50
2022-11-20T07:21:25.147Z,102475.88
2022-11-20T07:24:11.871Z,102468.06
2022-11-20T07:26:59.308Z,102478.53
2022-11-20T07:29:46.048Z,102472.47
2022-11-20T07:32:32.727Z,102464.63
2022-11-20T07:35:19.432Z,102457.59
2022-11-20T07:38:06.179Z,102427.72
2022-11-20T07:40:52.994Z,102456.81
2022-11-20T07:43:41.412Z,102463.78
2022-11-20T07:46:28.540Z,102459.41
2022-11-20T07:49:15.237Z,102463.81
2022-11-20T07:52:04.989Z,102469.94
2022-11-20T07:54:52.135Z,102309.94
2022-11-20T07:57:38.835Z,102458.63
2022-11-20T08:00:26.872Z,102390.09
2022-11-20T08:03:13.750Z,102457.78
2022-11-20T08:06:00.461Z,102456.88
2022-11-20T08:08:47.460Z,102440.22
2022-11-20T08:11:32.554Z,102384.81
2022-11-20T08:14:34.323Z,102440.34
2022-11-20T08:17:21.009Z,102434.28
2022-11-20T08:20:07.723Z,102437.75
2022-11-20T08:22:54.456Z,102431.69
2022-11-20T08:25:41.167Z,102417.50
2022-11-20T08:28:30.275Z,102438.66
2022-11-20T08:31:21.544Z,102437.78
2022-11-20T08:34:09.839Z,102433.41
2022-11-20T08:36:57.748Z,102438.63
2022-11-20T08:39:44.455Z,102422.91
2022-11-20T08:42:31.263Z,102437.72
2022-11-20T08:45:17.959Z,102443.84
2022-11-20T08:48:05.776Z,102436.91
2022-11-20T08:50:52.616Z,102428.16
2022-11-20T08:53:39.314Z,102423.78
2022-11-20T08:56:26.981Z,102427.31
2022-11-20T08:59:31.328Z,102416.00
2022-11-20T09:02:20.460Z,102427.34
2022-11-20T09:05:07.248Z,102426.47
2022-11-20T09:07:54.108Z,102417.75
2022-11-20T09:10:40.841Z,102418.63
2022-11-20T09:13:27.817Z,102421.22
2022-11-20T09:16:22.694Z,102420.38
2022-11-20T09:19:34.714Z,102333.38
2022-11-20T09:22:17.987Z,102418.66
2022-11-20T09:25:04.686Z,102369.38
2022-11-20T09:27:51.418Z,102416.91
2022-11-20T09:30:38.117Z,102417.81
2022-11-20T09:33:26.807Z,102419.56
2022-11-20T09:36:13.718Z,102411.72
2022-11-20T09:39:00.453Z,102410.00
2022-11-20T09:41:55.040Z,102411.69
2022-11-20T09:45:03.512Z,102405.56
2022-11-20T09:48:16.634Z,102402.06
2022-11-20T09:51:30.523Z,102412.53
2022-11-20T09:54:25.929Z,102399.44
2022-11-20T09:57:20.511Z,102403.75
2022-11-20T10:00:21.875Z,102401.13
2022-11-20T10:03:24.051Z,102398.50
2022-11-20T10:06:20.463Z,102395.88
2022-11-20T10:09:34.875Z,102380.94
2022-11-20T10:13:09.560Z,102389.72
2022-11-20T10:16:41.340Z,102383.59
2022-11-20T10:19:55.829Z,102387.97
2022-11-20T10:22:52.003Z,102374.88
2022-11-20T10:26:03.843Z,102377.50
2022-11-20T10:29:02.416Z,102374.06
2022-11-20T10:31:55.562Z,102376.69
2022-11-20T10:34:50.063Z,102368.81
2022-11-20T10:37:38.566Z,102360.88
2022-11-20T10:40:43.239Z,102379.31
2022-11-20T10:43:35.987Z,102363.56
2022-11-20T10:46:33.424Z,102366.16
2022-11-20T10:49:20.423Z,102372.28
2022-11-20T10:52:22.064Z,102373.16
2022-11-20T10:55:15.107Z,102354.75
2022-11-20T10:58:01.846Z,102371.47
2022-11-20T11:00:52.291Z,102366.25
2022-11-20T11:03:51.703Z,102367.09
2022-11-20T11:07:00.641Z,102371.50
2022-11-20T11:09:59.983Z,102363.66
2022-11-20T11:12:49.568Z,102365.41
2022-11-20T11:16:00.347Z,102347.81
2022-11-20T11:18:52.286Z,102366.25
2022-11-20T11:21:45.084Z,102365.34
2022-11-20T11:24:47.555Z,102372.31
2022-11-20T11:27:35.912Z,102361.78
2022-11-20T11:30:34.118Z,102358.34
2022-11-20T11:33:25.967Z,102356.56
2022-11-20T11:36:15.850Z,102337.31
2022-11-20T11:39:03.963Z,102346.94
2022-11-20T11:41:54.585Z,102342.56
2022-11-20T11:44:47.483Z,102342.53
2022-11-20T11:47:47.044Z,102345.16
2022-11-20T11:50:33.723Z,102340.78
2022-11-20T11:53:33.182Z,102337.31
2022-11-20T11:56:28.598Z,102304.78
2022-11-20T11:59:19.097Z,102335.56
2022-11-20T12:02:13.454Z,102336.47
2022-11-20T12:05:44.794Z,102331.25
2022-11-20T12:08:46.553Z,102332.16
2022-11-20T12:12:09.896Z,102333.00
2022-11-20T12:15:03.638Z,102349.63
2022-11-20T12:17:50.597Z,102330.38
2022-11-20T12:20:37.915Z,102315.47
2022-11-20T12:23:42.944Z,102325.13
2022-11-20T12:26:48.347Z,102331.25
2022-11-20T12:29:40.920Z,102328.63
2022-11-20T12:32:36.794Z,102325.13
2022-11-20T12:35:39.272Z,102318.13
2022-11-20T12:38:41.156Z,102326.00
2022-11-20T12:42:04.071Z,102326.00
2022-11-20T12:45:08.323Z,102326.88
2022-11-20T12:47:58.149Z,102318.13
2022-11-20T12:51:15.199Z,102324.25
2022-11-20T12:54:45.570Z,102320.75
2022-11-20T12:57:57.793Z,102329.50
2022-11-20T13:00:45.661Z,102315.50
2022-11-20T13:04:00.147Z,102316.41
2022-11-20T13:06:47.141Z,102312.91
2022-11-20T13:09:38.278Z,102305.94
2022-11-20T13:12:33.308Z,102267.22
2022-11-20T13:15:30.491Z,102313.78
2022-11-20T13:18:22.547Z,102312.00
2022-11-20T13:21:09.249Z,102305.91
2022-11-20T13:23:55.947Z,102287.47
2022-11-20T13:26:44.386Z,102299.75
2022-11-20T13:29:39.300Z,102293.56
2022-11-20T13:32:38.451Z,102291.00
2022-11-20T13:35:25.808Z,102288.34
2022-11-20T13:38:35.559Z,102292.72
2022-11-20T13:41:25.156Z,102286.59
2022-11-20T13:44:13.178Z,102283.97
2022-11-20T13:47:05.566Z,102282.25
2022-11-20T13:50:12.000Z,102254.16
2022-11-20T13:53:21.379Z,102272.59
2022-11-20T13:56:17.344Z,102270.84
2022-11-20T13:59:30.615Z,102271.72
2022-11-20T14:02:17.446Z,102269.03
2022-11-20T14:05:07.703Z,102259.44
2022-11-20T14:08:02.419Z,102264.66
2022-11-20T14:10:50.404Z,102262.91
2022-11-20T14:13:40.514Z,102263.75
2022-11-20T14:16:27.240Z,102253.25
2022-11-20T14:19:15.596Z,102259.34
2022-11-20T14:22:02.378Z,102260.22
2022-11-20T14:24:49.115Z,102253.19
2022-11-20T14:27:44.737Z,102254.97
2022-11-20T14:30:34.835Z,102249.78
2022-11-20T14:33:24.369Z,102254.13
2022-11-20T14:36:13.928Z,102243.66
2022-11-20T14:39:00.671Z,102237.53
2022-11-20T14:41:47.539Z,102232.28
2022-11-20T14:44:34.336Z,102185.81
2022-11-20T14:47:23.156Z,102229.69
2022-11-20T14:50:11.228Z,102223.59
2022-11-20T14:52:58.221Z,102221.78
2022-11-20T14:55:56.192Z,102197.22
2022-11-20T14:58:52.004Z,102220.03
2022-11-20T15:01:47.707Z,102221.81
2022-11-20T15:04:34.442Z,102233.22
2022-11-20T15:07:21.963Z,102226.25
2022-11-20T15:10:08.726Z,102221.00
2022-11-20T15:12:59.630Z,102230.56
2022-11-20T15:15:53.590Z,102168.34
2022-11-20T15:18:43.815Z,102219.19
2022-11-20T15:21:33.536Z,102167.44
2022-11-20T15:24:20.369Z,102216.56
2022-11-20T15:27:07.194Z,102219.19
2022-11-20T15:29:53.912Z,102193.75
2022-11-20T15:32:40.663Z,102203.41
2022-11-20T15:35:27.826Z,102205.16
2022-11-20T15:38:14.550Z,102184.09
2022-11-20T15:41:01.496Z,102201.63
2022-11-20T15:43:48.217Z,102203.34
2022-11-20T15:46:44.814Z,102167.44
2022-11-20T15:49:37.019Z,102205.97
2022-11-20T15:52:23.791Z,102205.13
2022-11-20T15:55:10.608Z,102199.84
2022-11-20T15:57:57.319Z,102207.72
2022-11-20T16:00:44.023Z,102212.94
2022-11-20T16:03:35.595Z,102205.09
2022-11-20T16:06:22.287Z,102205.94
2022-11-20T16:09:08.997Z,102204.16
2022-11-20T16:11:56.273Z,102202.41
2022-11-20T16:14:41.541Z,102123.34
2022-11-20T16:17:28.267Z,102201.50
2022-11-20T16:20:14.959Z,102201.44
2022-11-20T16:23:01.690Z,102203.13
2022-11-20T16:25:48.770Z,102196.16
2022-11-20T16:28:35.943Z,102204.06
2022-11-20T16:31:30.501Z,102196.22
2022-11-20T16:34:19.234Z,102193.59
2022-11-20T16:37:05.997Z,102194.44
2022-11-20T16:39:52.694Z,102196.22
2022-11-20T16:42:39.551Z,102182.13
2022-11-20T16:45:31.308Z,102190.06
2022-11-20T16:48:20.394Z,102192.66
2022-11-20T16:51:15.974Z,102184.78
2022-11-20T16:54:03.774Z,102182.09
2022-11-20T16:56:50.497Z,102184.78
2022-11-20T16:59:37.508Z,102168.06
2022-11-20T17:02:24.204Z,102179.53
2022-11-20T17:05:10.935Z,102190.00
2022-11-20T17:07:57.637Z,102182.13
2022-11-20T17:10:44.422Z,102177.72
2022-11-20T17:13:33.927Z,102179.47
2022-11-20T17:16:25.413Z,102193.47
2022-11-20T17:19:14.775Z,102183.00
2022-11-20T17:22:01.801Z,102177.78
2022-11-20T17:24:48.562Z,102178.59
2022-11-20T17:27:35.344Z,102128.53
2022-11-20T17:30:22.128Z,102154.88
2022-11-20T17:33:08.825Z,102169.88
2022-11-20T17:35:56.818Z,102171.63
2022-11-20T17:38:43.943Z,102174.22
2022-11-20T17:41:39.155Z,102166.34
2022-11-20T17:44:26.070Z,102170.75
2022-11-20T17:47:12.949Z,102181.25
2022-11-20T17:49:59.685Z,102178.63
2022-11-20T17:52:46.550Z,102175.97
2022-11-20T17:55:33.276Z,102171.56
2022-11-20T17:58:20.331Z,102172.41
2022-11-20T18:01:07.090Z,102173.25
2022-11-20T18:03:53.983Z,102172.31
2022-11-20T18:06:43.949Z,102175.81
2022-11-20T18:09:31.441Z,102192.41
2022-11-20T18:12:18.150Z,102173.22
2022-11-20T18:15:04.870Z,102171.47
2022-11-20T18:17:51.575Z,102162.72
2022-11-20T18:20:40.179Z,102160.97
2022-11-20T18:23:27.052Z,102155.75
2022-11-20T18:26:20.262Z,102157.50
2022-11-20T18:29:07.540Z,102163.63
2022-11-20T18:31:54.508Z,102115.38
2022-11-20T18:34:41.235Z,102160.97
2022-11-20T18:37:28.027Z,102163.59
2022-11-20T18:40:16.192Z,102162.69
2022-11-20T18:43:01.355Z,102160.88
2022-11-20T18:45:48.087Z,102173.09
2022-11-20T18:48:35.019Z,102153.78
2022-11-20T18:51:28.254Z,102168.72
2022-11-20T18:54:15.425Z,102176.59
2022-11-20T18:57:02.183Z,102167.81
2022-11-20T18:59:49.005Z,102175.72
2022-11-20T19:02:42.183Z,102174.81
2022-11-20T19:05:31.887Z,102168.66
2022-11-20T19:08:18.624Z,102184.38
2022-11-20T19:11:05.327Z,102173.00
2022-11-20T19:13:53.292Z,102170.38
2022-11-20T19:16:41.000Z,102162.47
2022-11-20T19:19:27.886Z,102170.38
2022-11-20T19:22:14.811Z,102158.97
2022-11-20T19:25:01.820Z,102083.47
2022-11-20T19:27:48.593Z,102161.63
2022-11-20T19:30:35.585Z,102114.25
2022-11-20T19:33:22.335Z,102157.28
2022-11-20T19:36:09.071Z,102043.25
2022-11-20T19:38:56.443Z,102142.44
2022-11-20T19:41:51.555Z,102139.81
2022-11-20T19:44:38.384Z,102139.81
2022-11-20T19:47:45.962Z,102134.44
2022-11-20T19:50:31.853Z,102144.09
2022-11-20T19:53:18.584Z,102143.22
2022-11-20T19:56:19.264Z,102141.47
2022-11-20T19:59:06.049Z,102144.91
2022-11-20T20:01:52.826Z,102130.03
2022-11-20T20:04:39.559Z,102146.69
2022-11-20T20:07:26.312Z,102136.22
2022-11-20T20:10:13.104Z,102137.06
2022-11-20T20:13:00.042Z,102140.53
2022-11-20T20:15:46.763Z,102122.16
2022-11-20T20:18:33.505Z,102131.81
2022-11-20T20:21:28.958Z,102132.66
2022-11-20T20:24:16.540Z,102134.38
2022-11-20T20:27:03.332Z,102133.50
2022-11-20T20:29:50.116Z,102116.81
2022-11-20T20:32:36.842Z,102133.44
2022-11-20T20:35:24.506Z,102124.72
2022-11-20T20:38:11.243Z,102120.38
2022-11-20T20:40:58.172Z,102122.06
2022-11-20T20:43:45.032Z,102123.81
2022-11-20T20:46:31.725Z,102115.13
2022-11-20T20:49:18.621Z,102094.06
2022-11-20T20:52:05.359Z,102115.16
2022-11-20T20:54:52.082Z,102110.78
2022-11-20T20:57:38.789Z,102114.25
2022-11-20T21:00:26.611Z,102102.88
2022-11-20T21:03:13.351Z,102108.97
2022-11-20T21:06:00.065Z,102108.09
2022-11-20T21:08:46.915Z,102108.09
2022-11-20T21:11:36.827Z,102112.41
2022-11-20T21:14:23.776Z,102105.38
2022-11-20T21:17:14.975Z,102110.56
2022-11-20T21:20:02.114Z,102067.59
2022-11-20T21:22:48.827Z,102101.75
2022-11-20T21:25:35.566Z,102104.34
2022-11-20T21:28:22.318Z,102099.97
2022-11-20T21:31:09.059Z,102112.09
2022-11-20T21:33:57.760Z,102104.31
2022-11-20T21:36:47.148Z,102106.91
2022-11-20T21:39:35.023Z,102119.09
2022-11-20T21:42:21.763Z,102100.81
2022-11-20T21:45:08.462Z,102106.03
2022-11-20T21:47:55.156Z,102093.81
2022-11-20T21:50:41.862Z,102089.44
2022-11-20T21:53:28.715Z,102050.81
2022-11-20T21:56:20.077Z,102098.09
2022-11-20T21:59:07.803Z,102102.38
2022-11-20T22:01:54.868Z,102098.88
2022-11-20T22:04:41.635Z,102104.06
2022-11-20T22:07:28.532Z,102096.22
2022-11-20T22:10:18.495Z,102101.38
2022-11-20T22:13:05.631Z,102103.03
2022-11-20T22:16:00.616Z,102099.47
2022-11-20T22:18:47.712Z,102096.84
2022-11-20T22:21:35.426Z,102105.63
2022-11-20T22:24:22.605Z,102078.44
2022-11-20T22:27:10.147Z,102059.19
2022-11-20T22:29:56.832Z,102095.22
2022-11-20T22:32:43.534Z,102088.25
2022-11-20T22:35:30.238Z,102090.81
2022-11-20T22:38:16.939Z,102084.56
2022-11-20T22:41:06.487Z,102087.09
2022-11-20T22:43:53.783Z,102094.22
2022-11-20T22:46:42.219Z,102104.59
2022-11-20T22:49:29.163Z,102099.34
2022-11-20T22:52:15.863Z,102094.09
2022-11-20T22:55:02.630Z,102087.88
2022-11-20T22:57:49.537Z,102115.06
2022-11-20T23:00:36.855Z,102008.03
2022-11-20T23:03:23.565Z,102113.31
2022-11-20T23:06:10.349Z,102113.28
2022-11-20T23:08:58.746Z,102060.63
2022-11-20T23:11:49.899Z,102118.53
2022-11-20T23:14:36.638Z,102115.91
2022-11-20T23:17:23.423Z,102110.72
2022-11-20T23:20:10.154Z,102121.16
2022-11-20T23:22:56.900Z,102122.06
2022-11-20T23:25:43.610Z,102121.19
2022-11-20T23:28:30.678Z,102125.59
2022-11-20T23:31:18.170Z,102115.97
2022-11-20T23:34:05.920Z,102123.00
2022-11-20T23:36:52.726Z,102127.31
2022-11-20T23:39:39.471Z,102134.28
2022-11-20T23:42:26.158Z,102133.44
2022-11-20T23:45:12.891Z,102140.41
2022-11-20T23:47:59.621Z,102136.88
2022-11-20T23:50:46.315Z,102139.59
2022-11-20T23:53:33.699Z,102124.66
2022-11-20T23:56:23.478Z,102142.19
2022-11-20T23:59:10.450Z,102135.16
